Terminal Aerodrome Forecast
Issued by NWS

Home | Current Version | Previous Version | Text Only | Print | Product List | Glossary On
Versions: 1 2 3 4 5 6 7 8 9 10 11 12 13 14 15 16
000
FTUS41 KPHI 240530
TAFMIV
TAF
KMIV 240530Z 2406/2506 00000KT 5SM BR SCT002
     FM241300 05004KT P6SM SCT250
     FM241600 VRB04KT P6SM SCT250
     FM241800 20006KT P6SM SCT250
     FM242300 VRB03KT P6SM SCT250
     FM250400 13002KT 4SM BR SCT250=

USA.gov is the U.S. government's official web portal to all federal, state and local government web resources and services.